CheckWX is a tool to help pilots better visualize weather data.  It is not intended as a substitute for an official pre-flight weather briefing.

21:35:40 UTC

EFRO METAR
Rovaniemi Airport
Rovaniemi, Finland
Current

16 mins ago

EFRO 232120Z AUTO 06006KT CAVOK 03/M05 Q1016
Observed
May-23 @ 21:20 UTC
Wind
  • 060° at 6 KTS
Visibility
10,000+ meters
Flight Rules
VFR
Cloud Levels
  • Clear skies
Temperature
C / 37°F
Dewpoint
-5°C / 23°F
Humidity
56%
Altimeter
30" Hg
Pressure
1015.92 hPa
Previous

46 mins ago

EFRO 232050Z AUTO 08005KT CAVOK 05/M04 Q1016
Observed
May-23 @ 20:50 UTC
Wind
  • 080° at 5 KTS
Visibility
10,000+ meters
Flight Rules
VFR
Cloud Levels
  • Clear skies
Temperature
C / 41°F
Dewpoint
-4°C / 25°F
Humidity
53%
Altimeter
30" Hg
Pressure
1015.92 hPa
Previous

2 hours ago

EFRO 231950Z AUTO 05004KT CAVOK 05/M05 Q1015
Observed
May-23 @ 19:50 UTC
Wind
  • 050° at 4 KTS
Visibility
10,000+ meters
Flight Rules
VFR
Cloud Levels
  • Clear skies
Temperature
C / 41°F
Dewpoint
-5°C / 23°F
Humidity
49%
Altimeter
29.97" Hg
Pressure
1014.92 hPa